Time;durP1;ratioP1;P1;durP2;ratioP2;P2;SDS_P1;SDS_P2;PMS_P1;PMS_P2;Temp;Humidity;BMP_temperature;BMP_pressure;BME280_temperature;BME280_humidity;BME280_pressure;Samples;Min_cycle;Max_cycle;Signal;HPM_P1;HPM_P2
2022/09/27 00:01:15;;;;;;;0.30;0.00;;;9.50;99.90;;;;;;5010313;28;20478;-86
2022/09/27 00:03:41;;;;;;;0.30;0.10;;;9.50;99.90;;;;;;5017732;28;20014;-85
2022/09/27 00:06:19;;;;;;;0.47;0.10;;;9.50;99.90;;;;;;5007820;28;20021;-85
2022/09/27 00:08:45;;;;;;;1.35;0.32;;;9.50;99.90;;;;;;5010935;28;20121;-84
2022/09/27 00:11:21;;;;;;;0.00;0.00;;;9.50;99.90;;;;;;5018516;28;20057;-85
2022/09/27 00:13:47;;;;;;;0.40;0.10;;;9.50;99.90;;;;;;5009983;28;20080;-85
2022/09/27 00:16:13;;;;;;;0.20;0.10;;;9.50;99.90;;;;;;5006721;28;20593;-85
2022/09/27 00:18:38;;;;;;;0.55;0.17;;;9.50;99.90;;;;;;5012176;28;20018;-85
2022/09/27 00:21:06;;;;;;;0.50;0.10;;;9.50;99.90;;;;;;5012099;28;20033;-87
2022/09/27 00:23:33;;;;;;;0.20;0.10;;;9.50;99.90;;;;;;4993866;28;20039;-86
2022/09/27 00:25:59;;;;;;;0.65;0.15;;;9.50;99.90;;;;;;5002350;28;20104;-86
2022/09/27 00:28:25;;;;;;;0.60;0.00;;;9.50;99.90;;;;;;5011986;28;20038;-86
2022/09/27 00:30:52;;;;;;;0.45;0.10;;;9.40;99.90;;;;;;5001749;28;20030;-85
2022/09/27 00:33:17;;;;;;;3.20;0.20;;;9.40;99.90;;;;;;5004959;28;20044;-85
2022/09/27 00:35:43;;;;;;;0.32;0.00;;;9.40;99.90;;;;;;5002079;28;20109;-86
2022/09/27 00:38:10;;;;;;;0.10;0.10;;;9.40;99.90;;;;;;5024111;23;20034;-81
2022/09/27 00:40:36;;;;;;;0.65;0.20;;;9.40;99.90;;;;;;5040881;28;20697;-83
2022/09/27 00:43:01;;;;;;;0.10;0.00;;;9.40;99.90;;;;;;5040873;28;20029;-85
2022/09/27 00:45:27;;;;;;;0.10;0.00;;;9.40;99.90;;;;;;5043003;28;20124;-84
2022/09/27 00:48:04;;;;;;;0.50;0.20;;;9.40;99.90;;;;;;5042904;28;20569;-85
2022/09/27 00:50:39;;;;;;;0.15;0.05;;;9.40;99.90;;;;;;5030157;28;20433;-84
2022/09/27 00:53:17;;;;;;;0.52;0.10;;;9.40;99.90;;;;;;5020124;28;20021;-82
2022/09/27 00:55:51;;;;;;;0.30;0.10;;;9.50;99.90;;;;;;5018662;28;20032;-82
2022/09/27 00:58:25;;;;;;;0.30;0.10;;;9.50;99.90;;;;;;5025266;28;20025;-82
2022/09/27 01:00:55;;;;;;;0.10;0.00;;;9.50;99.90;;;;;;5032751;28;20382;-84
2022/09/27 01:03:35;;;;;;;0.47;0.10;;;9.40;99.90;;;;;;5030429;28;20079;-84
2022/09/27 01:06:01;;;;;;;0.30;0.10;;;9.60;99.90;;;;;;5021647;28;20021;-83
2022/09/27 01:08:27;;;;;;;2.40;0.10;;;9.50;99.90;;;;;;5031449;28;20017;-84
2022/09/27 01:11:13;;;;;;;0.85;0.15;;;9.50;99.90;;;;;;5023707;28;20394;-84
2022/09/27 01:14:04;;;;;;;0.98;0.00;;;9.50;99.90;;;;;;5028581;28;20033;-84
2022/09/27 01:16:40;;;;;;;0.28;0.00;;;9.40;99.90;;;;;;5031236;28;20164;-84
2022/09/27 01:19:21;;;;;;;0.05;0.00;;;9.50;99.90;;;;;;5026907;28;20425;-84
2022/09/27 01:21:56;;;;;;;0.85;0.15;;;9.50;99.90;;;;;;5035677;28;20517;-83
2022/09/27 01:24:33;;;;;;;0.20;0.00;;;9.40;99.90;;;;;;5028586;28;20027;-84
2022/09/27 01:27:37;;;;;;;0.00;0.00;;;9.40;99.90;;;;;;5032449;28;20017;-84
2022/09/27 01:30:19;;;;;;;0.20;0.05;;;9.40;99.90;;;;;;5020979;28;20087;-85
2022/09/27 01:32:56;;;;;;;0.10;0.00;;;9.40;99.90;;;;;;5027009;28;20367;-83
2022/09/27 01:35:39;;;;;;;0.30;0.03;;;9.40;99.90;;;;;;5030153;28;20036;-84
2022/09/27 01:38:22;;;;;;;0.40;0.10;;;9.40;99.90;;;;;;5020891;28;20035;-84
2022/09/27 01:41:05;;;;;;;0.00;0.00;;;9.40;99.90;;;;;;5050568;28;20030;-85
2022/09/27 01:43:45;;;;;;;0.63;0.10;;;9.50;99.90;;;;;;5029379;28;20026;-84
2022/09/27 01:46:20;;;;;;;0.52;0.17;;;9.50;99.90;;;;;;5032432;28;20159;-84
2022/09/27 01:48:48;;;;;;;0.00;0.00;;;9.50;99.90;;;;;;5029995;28;20029;-85
2022/09/27 01:51:22;;;;;;;0.50;0.10;;;9.50;99.90;;;;;;5030682;28;20107;-84
2022/09/27 01:53:59;;;;;;;0.10;0.00;;;9.50;99.90;;;;;;5032774;28;20718;-84
2022/09/27 01:56:33;;;;;;;0.20;0.05;;;9.50;99.90;;;;;;5025645;28;20033;-84
2022/09/27 01:59:14;;;;;;;0.17;0.10;;;9.60;99.90;;;;;;5025397;28;20034;-85
2022/09/27 02:01:42;;;;;;;1.42;0.10;;;9.60;99.90;;;;;;5026126;28;20029;-84
2022/09/27 02:04:12;;;;;;;0.00;0.00;;;9.60;99.90;;;;;;5023186;28;20021;-84
2022/09/27 02:06:44;;;;;;;0.03;0.00;;;9.60;99.90;;;;;;5034076;28;20048;-84
2022/09/27 02:09:17;;;;;;;0.32;0.10;;;9.60;99.90;;;;;;5034542;28;20490;-85
2022/09/27 02:11:49;;;;;;;0.60;0.10;;;9.60;99.90;;;;;;5031557;28;20405;-84
2022/09/27 02:14:28;;;;;;;0.30;0.08;;;9.60;99.90;;;;;;5022987;28;20041;-85
2022/09/27 02:17:04;;;;;;;0.25;0.05;;;9.60;99.90;;;;;;5051007;28;20017;-84
2022/09/27 02:19:39;;;;;;;0.10;0.10;;;9.70;99.90;;;;;;5032463;28;20028;-83
2022/09/27 02:22:43;;;;;;;0.13;0.10;;;9.70;99.90;;;;;;5028348;28;20171;-84
2022/09/27 02:25:12;;;;;;;0.30;0.10;;;9.70;99.90;;;;;;5025803;28;20112;-84
2022/09/27 02:27:45;;;;;;;0.10;0.00;;;9.70;99.90;;;;;;5024780;28;20116;-84
2022/09/27 02:30:13;;;;;;;0.00;0.00;;;9.70;99.90;;;;;;5022387;28;20498;-84
2022/09/27 02:32:40;;;;;;;0.52;0.00;;;9.70;99.90;;;;;;5032733;28;20597;-84
2022/09/27 02:35:16;;;;;;;0.35;0.10;;;9.70;99.90;;;;;;5033997;28;20087;-84
2022/09/27 02:37:42;;;;;;;1.45;0.10;;;9.70;99.90;;;;;;5031582;28;20075;-84
2022/09/27 02:40:12;;;;;;;1.55;0.17;;;9.70;99.90;;;;;;5029018;28;20124;-84
2022/09/27 02:42:41;;;;;;;0.10;0.00;;;9.70;99.90;;;;;;5025971;28;20474;-85
2022/09/27 02:45:08;;;;;;;0.13;0.00;;;9.70;99.90;;;;;;5026781;28;20064;-84
2022/09/27 02:48:10;;;;;;;0.90;0.00;;;9.70;99.90;;;;;;5033159;28;20532;-84
2022/09/27 02:51:02;;;;;;;0.10;0.00;;;9.70;99.90;;;;;;5032936;28;20401;-84
2022/09/27 02:53:38;;;;;;;0.17;0.00;;;9.70;99.90;;;;;;5026922;28;20034;-84
2022/09/27 02:56:29;;;;;;;0.25;0.00;;;9.60;99.90;;;;;;5033053;28;20074;-84
2022/09/27 02:59:16;;;;;;;0.60;0.00;;;9.70;99.90;;;;;;5025432;28;20064;-84
2022/09/27 03:02:05;;;;;;;0.40;0.00;;;9.60;99.90;;;;;;5032479;28;20030;-84
2022/09/27 03:04:43;;;;;;;0.30;0.00;;;9.60;99.90;;;;;;5033998;28;20025;-84
2022/09/27 03:07:11;;;;;;;0.38;0.30;;;9.50;99.90;;;;;;5032760;28;20079;-84
2022/09/27 03:09:47;;;;;;;0.10;0.00;;;9.50;99.90;;;;;;5032119;28;20035;-84
2022/09/27 03:12:13;;;;;;;0.32;0.03;;;9.40;99.90;;;;;;5024601;28;20037;-83
2022/09/27 03:14:39;;;;;;;0.05;0.00;;;9.40;99.90;;;;;;5024573;28;20022;-84
2022/09/27 03:17:05;;;;;;;0.20;0.10;;;9.30;99.90;;;;;;5021113;28;20030;-84
2022/09/27 03:19:31;;;;;;;0.30;0.00;;;9.30;99.90;;;;;;5030185;28;20029;-84
2022/09/27 03:21:56;;;;;;;0.00;0.00;;;9.30;99.90;;;;;;5034056;28;20041;-85
2022/09/27 03:24:22;;;;;;;0.20;0.15;;;9.30;99.90;;;;;;5039724;28;20030;-85
2022/09/27 03:26:48;;;;;;;0.90;0.10;;;9.30;99.90;;;;;;5025104;28;20026;-84
2022/09/27 03:29:15;;;;;;;0.00;0.00;;;9.20;99.90;;;;;;5023108;28;20170;-85
2022/09/27 03:31:40;;;;;;;0.13;0.10;;;9.20;99.90;;;;;;5026511;28;20021;-85
2022/09/27 03:34:06;;;;;;;0.73;0.10;;;9.10;99.90;;;;;;5030247;28;20037;-85
2022/09/27 03:36:32;;;;;;;0.20;0.10;;;9.10;99.90;;;;;;5025934;28;20029;-84
2022/09/27 03:38:57;;;;;;;0.30;0.10;;;9.10;99.90;;;;;;5031850;28;20042;-84
2022/09/27 03:41:23;;;;;;;0.55;0.08;;;9.20;99.90;;;;;;5027026;28;20087;-84
2022/09/27 03:43:49;;;;;;;0.10;0.00;;;9.10;99.90;;;;;;5027030;28;20021;-84
2022/09/27 03:46:15;;;;;;;0.35;0.10;;;9.00;99.90;;;;;;5024440;28;20110;-84
2022/09/27 03:48:41;;;;;;;0.77;0.10;;;9.00;99.90;;;;;;5030496;28;20506;-85
2022/09/27 03:51:07;;;;;;;1.20;0.80;;;8.90;99.90;;;;;;5021668;28;20037;-84
2022/09/27 03:53:33;;;;;;;0.20;0.10;;;9.00;99.90;;;;;;5031911;28;20095;-84
2022/09/27 03:55:59;;;;;;;0.28;0.00;;;9.00;99.90;;;;;;5020751;28;20026;-85
2022/09/27 03:58:24;;;;;;;1.73;0.22;;;9.10;99.90;;;;;;5028531;28;20734;-85
2022/09/27 04:00:50;;;;;;;0.35;0.20;;;9.10;99.90;;;;;;5030996;28;20116;-85
2022/09/27 04:03:18;;;;;;;0.20;0.10;;;9.10;99.90;;;;;;5029930;28;20087;-83
2022/09/27 04:05:44;;;;;;;0.30;0.00;;;9.10;99.90;;;;;;5027870;28;20021;-84
2022/09/27 04:08:10;;;;;;;1.85;0.10;;;9.20;99.90;;;;;;5021661;28;20029;-84
2022/09/27 04:10:36;;;;;;;1.90;0.38;;;9.10;99.90;;;;;;5019727;28;20397;-84
2022/09/27 04:13:02;;;;;;;0.85;0.10;;;9.10;99.90;;;;;;5018034;28;20030;-84
2022/09/27 04:15:28;;;;;;;0.88;0.20;;;9.10;99.90;;;;;;5029482;28;20158;-83
2022/09/27 04:17:53;;;;;;;0.20;0.10;;;9.10;99.90;;;;;;5028902;28;20502;-85
2022/09/27 04:20:19;;;;;;;0.60;0.30;;;9.10;99.90;;;;;;5029621;28;20030;-84
2022/09/27 04:22:45;;;;;;;2.60;0.30;;;9.10;99.90;;;;;;5034222;28;20036;-84
2022/09/27 04:25:11;;;;;;;0.20;0.10;;;9.10;99.90;;;;;;5028099;28;20021;-84
2022/09/27 04:27:37;;;;;;;0.70;0.38;;;9.10;99.90;;;;;;5027611;28;20076;-84
2022/09/27 04:30:04;;;;;;;0.82;0.20;;;9.10;99.90;;;;;;5033688;28;20030;-85
2022/09/27 04:32:30;;;;;;;0.77;0.30;;;9.10;99.90;;;;;;5032478;28;20040;-85
2022/09/27 04:37:39;;;;;;;0.82;0.15;;;9.10;99.90;;;;;;5024588;28;20107;-84
2022/09/27 04:40:05;;;;;;;1.65;0.28;;;9.10;99.90;;;;;;5034249;28;20025;-84
2022/09/27 04:42:33;;;;;;;0.80;0.20;;;9.10;99.90;;;;;;5033451;28;20025;-84
2022/09/27 04:44:58;;;;;;;0.77;0.20;;;9.20;99.90;;;;;;5031283;28;20021;-85
2022/09/27 04:47:24;;;;;;;3.33;0.22;;;9.20;99.90;;;;;;5039353;28;20492;-84
2022/09/27 04:49:50;;;;;;;0.93;0.30;;;9.20;99.90;;;;;;5032267;28;20478;-84
2022/09/27 04:52:21;;;;;;;1.48;0.30;;;9.20;99.90;;;;;;5031852;28;20033;-84
2022/09/27 04:54:51;;;;;;;1.17;0.25;;;9.20;99.90;;;;;;5031782;28;20176;-85
2022/09/27 04:57:17;;;;;;;0.30;0.10;;;9.10;99.90;;;;;;5025278;28;20033;-84
2022/09/27 04:59:43;;;;;;;1.15;0.30;;;9.10;99.90;;;;;;5027877;28;20041;-84
2022/09/27 05:02:09;;;;;;;1.48;0.20;;;9.40;99.90;;;;;;5034605;28;20105;-85
2022/09/27 05:04:35;;;;;;;3.25;0.22;;;9.10;99.90;;;;;;5034328;28;20045;-83
2022/09/27 05:07:20;;;;;;;1.45;0.30;;;9.10;99.90;;;;;;5027069;28;20451;-84
2022/09/27 05:09:46;;;;;;;0.77;0.20;;;9.10;99.90;;;;;;5029545;28;20088;-84
2022/09/27 05:12:12;;;;;;;1.80;0.20;;;9.10;99.90;;;;;;5049742;28;20055;-84
2022/09/27 05:14:38;;;;;;;1.20;0.20;;;9.20;99.90;;;;;;5031681;28;20029;-84
2022/09/27 05:17:06;;;;;;;0.68;0.20;;;9.20;99.90;;;;;;5030507;28;20029;-84
2022/09/27 05:19:33;;;;;;;1.25;0.30;;;9.20;99.90;;;;;;5030718;28;20463;-84
2022/09/27 05:21:58;;;;;;;2.08;0.20;;;9.30;99.90;;;;;;5031758;28;20592;-84
2022/09/27 05:24:26;;;;;;;0.82;0.20;;;9.30;99.90;;;;;;5029994;28;20030;-84
2022/09/27 05:29:40;;;;;;;0.40;0.17;;;9.40;99.90;;;;;;5033105;28;20116;-84
2022/09/27 05:32:42;;;;;;;;;;;;;;;;;;;;;
2022/09/27 05:35:18;;;;;;;0.55;0.10;;;9.40;99.90;;;;;;5037311;28;20125;-84
2022/09/27 05:38:07;;;;;;;1.38;0.17;;;9.50;99.90;;;;;;5035544;28;20052;-83
2022/09/27 05:40:54;;;;;;;;;;;;;;;;;;;;;
2022/09/27 05:43:20;;;;;;;1.25;0.20;;;9.50;99.90;;;;;;5030609;28;20108;-84
2022/09/27 05:45:46;;;;;;;0.30;0.10;;;9.50;99.90;;;;;;5030800;28;20145;-84
2022/09/27 05:48:13;;;;;;;1.63;0.20;;;9.60;99.90;;;;;;5031038;28;20034;-85
2022/09/27 05:50:39;;;;;;;0.10;0.10;;;9.50;99.90;;;;;;5028486;28;20018;-83
2022/09/27 05:53:05;;;;;;;0.90;0.20;;;9.70;99.90;;;;;;5018312;28;20160;-84
2022/09/27 05:55:31;;;;;;;0.30;0.20;;;9.50;99.90;;;;;;5030467;28;20045;-83
2022/09/27 05:58:02;;;;;;;0.80;0.15;;;9.90;99.90;;;;;;5029976;28;20029;-84
2022/09/27 06:00:29;;;;;;;0.43;0.10;;;9.50;99.90;;;;;;5033357;28;20049;-84
2022/09/27 06:02:57;;;;;;;0.47;0.20;;;9.50;99.90;;;;;;5034370;28;20507;-84
2022/09/27 06:05:28;;;;;;;2.35;0.20;;;9.50;99.90;;;;;;5037270;28;20752;-85
2022/09/27 06:08:12;;;;;;;2.08;0.30;;;9.50;99.90;;;;;;5027954;28;20060;-86
2022/09/27 06:10:40;;;;;;;0.35;0.10;;;9.50;99.90;;;;;;5034929;28;20036;-86
2022/09/27 06:13:20;;;;;;;0.85;0.20;;;9.70;99.90;;;;;;5035228;28;20025;-85
2022/09/27 06:15:49;;;;;;;0.52;0.10;;;9.20;99.90;;;;;;5023695;28;20026;-84
2022/09/27 06:18:16;;;;;;;0.77;0.20;;;9.60;99.90;;;;;;5030810;28;20045;-85
2022/09/27 06:20:44;;;;;;;0.20;0.10;;;9.60;99.90;;;;;;5033219;28;20013;-84
2022/09/27 06:23:21;;;;;;;1.67;0.57;;;9.60;99.90;;;;;;5029151;28;20382;-85
2022/09/27 06:25:48;;;;;;;0.15;0.10;;;8.90;99.90;;;;;;5021043;28;20029;-84
2022/09/27 06:28:14;;;;;;;1.60;0.32;;;9.40;99.90;;;;;;5023347;28;20026;-85
2022/09/27 06:30:45;;;;;;;0.88;0.10;;;9.50;99.90;;;;;;5031039;28;20045;-84
2022/09/27 06:33:13;;;;;;;0.32;0.10;;;9.30;99.90;;;;;;5024448;28;20025;-84
2022/09/27 06:35:41;;;;;;;0.20;0.10;;;10.10;99.90;;;;;;5031864;28;20029;-84
2022/09/27 06:38:09;;;;;;;0.30;0.10;;;9.30;99.90;;;;;;5033024;28;20402;-84
2022/09/27 06:40:35;;;;;;;0.30;0.10;;;9.30;99.90;;;;;;5049624;23;20041;-84
2022/09/27 06:43:07;;;;;;;0.30;0.00;;;9.20;99.90;;;;;;5035339;28;20022;-84
2022/09/27 06:45:34;;;;;;;0.93;0.10;;;9.20;99.90;;;;;;5033647;28;20024;-84
2022/09/27 06:48:01;;;;;;;0.95;0.15;;;9.20;99.90;;;;;;5029603;28;20056;-84
2022/09/27 06:50:28;;;;;;;0.38;0.05;;;9.30;99.90;;;;;;5029272;28;20037;-84
2022/09/27 06:52:54;;;;;;;2.05;0.10;;;9.30;99.90;;;;;;5029605;28;20524;-85
2022/09/27 06:55:20;;;;;;;0.43;0.10;;;9.30;99.90;;;;;;5016080;28;20025;-86
2022/09/27 07:00:30;;;;;;;0.38;0.10;;;9.20;99.90;;;;;;5013354;28;20048;-86
2022/09/27 07:02:59;;;;;;;0.03;0.03;;;9.30;99.90;;;;;;5013352;28;20442;-87
2022/09/27 07:05:28;;;;;;;0.20;0.10;;;9.30;99.90;;;;;;5009572;28;20037;-87
2022/09/27 07:07:57;;;;;;;1.08;0.10;;;9.50;99.90;;;;;;5013417;28;20014;-87
2022/09/27 07:10:29;;;;;;;0.10;0.10;;;9.50;99.90;;;;;;5007758;28;21112;-87
2022/09/27 07:12:55;;;;;;;2.13;0.30;;;9.60;99.90;;;;;;5016350;28;20057;-86
2022/09/27 07:15:22;;;;;;;0.95;0.10;;;9.40;99.90;;;;;;5017265;28;20033;-87
2022/09/27 07:17:58;;;;;;;0.20;0.10;;;9.50;99.90;;;;;;5014005;28;20484;-86
2022/09/27 07:20:24;;;;;;;0.22;0.00;;;9.40;99.90;;;;;;5009599;28;20030;-87
2022/09/27 07:22:50;;;;;;;0.00;0.00;;;9.40;99.90;;;;;;5007295;28;20508;-87
2022/09/27 07:25:16;;;;;;;0.70;0.08;;;9.50;99.90;;;;;;5012838;28;20022;-86
2022/09/27 07:27:42;;;;;;;1.70;0.30;;;9.50;99.90;;;;;;5005295;28;20363;-87
2022/09/27 07:30:09;;;;;;;0.00;0.00;;;9.50;99.90;;;;;;5006507;28;20168;-86
2022/09/27 07:32:35;;;;;;;0.40;0.00;;;9.70;99.90;;;;;;5003823;28;20551;-86
2022/09/27 07:35:05;;;;;;;0.20;0.00;;;9.70;99.90;;;;;;5008928;28;20033;-86
2022/09/27 07:37:32;;;;;;;0.52;0.00;;;9.70;99.90;;;;;;5010219;28;20026;-85
2022/09/27 07:39:59;;;;;;;0.00;0.00;;;9.80;99.90;;;;;;5015878;28;20515;-86
2022/09/27 07:42:25;;;;;;;0.13;0.00;;;9.70;99.90;;;;;;5014041;28;20057;-86
2022/09/27 07:44:50;;;;;;;0.13;0.00;;;9.80;99.90;;;;;;5011022;28;20112;-86
2022/09/27 07:47:18;;;;;;;0.10;0.00;;;9.80;99.90;;;;;;5011921;28;20022;-86
2022/09/27 07:49:43;;;;;;;0.00;0.00;;;9.80;99.90;;;;;;5012126;28;20014;-86
2022/09/27 07:52:09;;;;;;;0.63;0.10;;;9.90;99.90;;;;;;5013110;28;20036;-87
2022/09/27 07:54:35;;;;;;;0.75;0.00;;;9.90;99.90;;;;;;5012924;28;20371;-86
2022/09/27 07:57:02;;;;;;;0.00;0.00;;;9.90;99.90;;;;;;5014515;28;20038;-86
2022/09/27 07:59:28;;;;;;;0.05;0.00;;;10.00;99.90;;;;;;5008358;28;20026;-86
2022/09/27 08:01:54;;;;;;;0.75;0.05;;;10.00;99.90;;;;;;5011230;28;20025;-86
2022/09/27 08:04:20;;;;;;;0.40;0.10;;;10.10;99.90;;;;;;5013047;28;20381;-86
2022/09/27 08:06:46;;;;;;;0.20;0.00;;;10.10;99.90;;;;;;5010252;28;20017;-87
2022/09/27 08:09:12;;;;;;;0.55;0.00;;;10.30;99.90;;;;;;5013101;28;20029;-86
2022/09/27 08:11:38;;;;;;;0.00;0.00;;;10.30;99.90;;;;;;5009287;28;20025;-86
2022/09/27 08:14:03;;;;;;;0.10;0.00;;;10.50;99.90;;;;;;5019099;28;20022;-86
2022/09/27 08:16:32;;;;;;;1.38;0.00;;;10.60;99.90;;;;;;5015870;28;20037;-86
2022/09/27 08:18:57;;;;;;;0.13;0.03;;;10.50;99.90;;;;;;5008796;28;20033;-86
2022/09/27 08:21:23;;;;;;;0.80;0.25;;;10.50;99.90;;;;;;5008126;28;20026;-86
2022/09/27 08:23:48;;;;;;;0.20;0.10;;;10.60;99.90;;;;;;5010685;28;20040;-86
2022/09/27 08:26:14;;;;;;;0.22;0.00;;;10.60;99.90;;;;;;5011140;28;20076;-86
2022/09/27 08:28:40;;;;;;;0.80;0.10;;;10.80;99.90;;;;;;5013952;28;20410;-86
2022/09/27 08:31:05;;;;;;;0.00;0.00;;;10.80;99.90;;;;;;5011576;28;20099;-86
2022/09/27 08:33:31;;;;;;;0.43;0.00;;;11.00;99.90;;;;;;4998452;28;20058;-86
2022/09/27 08:35:57;;;;;;;0.00;0.00;;;11.20;99.90;;;;;;5010586;28;20065;-86
2022/09/27 08:38:22;;;;;;;0.20;0.00;;;11.60;99.90;;;;;;5016110;28;20079;-86
2022/09/27 08:40:54;;;;;;;0.22;0.10;;;11.70;99.90;;;;;;5008127;28;20041;-86
2022/09/27 08:43:20;;;;;;;0.10;0.00;;;11.50;99.90;;;;;;5010479;28;20398;-86
2022/09/27 08:46:03;;;;;;;0.20;0.00;;;11.50;99.90;;;;;;5005744;28;20071;-86
2022/09/27 08:48:31;;;;;;;0.10;0.10;;;11.20;99.90;;;;;;5015068;28;20022;-86
2022/09/27 08:50:57;;;;;;;0.00;0.00;;;11.00;99.90;;;;;;5009811;28;20375;-86
2022/09/27 08:53:32;;;;;;;0.30;0.10;;;10.90;99.90;;;;;;5017945;28;20437;-85
2022/09/27 08:55:59;;;;;;;0.00;0.00;;;10.80;99.90;;;;;;5004895;28;20524;-87
2022/09/27 08:58:25;;;;;;;0.38;0.08;;;10.60;99.90;;;;;;5009350;28;20037;-86
2022/09/27 09:00:54;;;;;;;0.00;0.00;;;10.50;99.90;;;;;;5006760;28;20035;-86
2022/09/27 09:03:23;;;;;;;0.20;0.10;;;10.50;99.90;;;;;;5011963;28;20022;-86
2022/09/27 09:06:12;;;;;;;0.65;0.00;;;10.70;99.90;;;;;;5009012;28;20131;-86
2022/09/27 09:08:52;;;;;;;1.23;0.20;;;10.80;99.90;;;;;;5001553;28;20062;-86
2022/09/27 09:14:58;;;;;;;0.30;0.10;;;11.00;99.90;;;;;;5007889;28;20581;-86
2022/09/27 09:17:54;;;;;;;0.03;0.03;;;11.10;99.90;;;;;;4994902;28;20029;-86
2022/09/27 09:21:00;;;;;;;0.00;0.00;;;11.30;99.90;;;;;;5001481;28;20026;-86
2022/09/27 09:23:48;;;;;;;0.47;0.00;;;11.20;99.90;;;;;;5009687;28;20222;-86
2022/09/27 09:26:27;;;;;;;0.70;0.10;;;11.20;99.90;;;;;;5004821;28;20037;-85
2022/09/27 09:29:13;;;;;;;0.55;0.10;;;11.50;99.90;;;;;;5010536;28;20455;-86
2022/09/27 09:32:24;;;;;;;0.22;0.00;;;11.90;99.90;;;;;;5015343;28;20083;-86
2022/09/27 09:35:01;;;;;;;0.32;0.00;;;12.30;99.90;;;;;;5015456;28;20036;-86
2022/09/27 09:37:37;;;;;;;0.35;0.10;;;12.50;99.90;;;;;;5014298;28;20037;-86
2022/09/27 09:40:24;;;;;;;0.80;0.00;;;12.70;99.90;;;;;;5011606;28;20049;-86
2022/09/27 09:42:50;;;;;;;0.15;0.08;;;12.50;99.90;;;;;;5013751;28;20029;-86
2022/09/27 09:45:25;;;;;;;0.10;0.00;;;12.60;99.90;;;;;;5008505;28;20026;-86
2022/09/27 09:47:53;;;;;;;0.13;0.00;;;12.50;99.90;;;;;;5002950;28;20022;-86
2022/09/27 09:50:34;;;;;;;0.10;0.10;;;12.40;99.90;;;;;;5007193;28;20101;-86
2022/09/27 09:53:22;;;;;;;0.30;0.10;;;12.30;99.90;;;;;;5006952;28;20533;-86
2022/09/27 09:56:14;;;;;;;0.43;0.15;;;12.30;99.90;;;;;;5000469;28;20525;-86
2022/09/27 09:59:23;;;;;;;0.40;0.00;;;12.40;99.90;;;;;;5005500;28;20057;-86
2022/09/27 10:01:49;;;;;;;0.30;0.10;;;12.50;99.90;;;;;;4994268;28;20521;-86
2022/09/27 10:04:22;;;;;;;0.40;0.10;;;12.60;99.90;;;;;;5003338;28;20030;-86
2022/09/27 10:06:49;;;;;;;1.75;0.10;;;12.80;99.90;;;;;;5012310;28;20057;-86
2022/09/27 10:09:16;;;;;;;0.35;0.10;;;13.00;99.90;;;;;;5019676;28;20029;-87
2022/09/27 10:11:44;;;;;;;0.10;0.00;;;12.90;99.90;;;;;;5011675;28;20025;-86
2022/09/27 10:14:12;;;;;;;1.65;0.20;;;12.70;99.90;;;;;;5015772;28;20044;-86
2022/09/27 10:16:41;;;;;;;0.90;0.22;;;13.00;99.90;;;;;;5012971;28;20034;-86
2022/09/27 10:19:08;;;;;;;1.27;0.10;;;12.90;99.90;;;;;;5013471;28;20502;-87
2022/09/27 10:21:38;;;;;;;0.20;0.10;;;13.10;99.90;;;;;;5011734;28;20030;-86
2022/09/27 10:24:13;;;;;;;0.40;0.20;;;13.20;99.90;;;;;;5017094;28;20030;-86
2022/09/27 10:26:42;;;;;;;0.75;0.17;;;13.10;99.90;;;;;;5012444;28;20040;-86
2022/09/27 10:29:33;;;;;;;0.10;0.08;;;13.00;99.90;;;;;;5011764;28;20404;-85
2022/09/27 10:32:03;;;;;;;0.40;0.20;;;13.70;99.90;;;;;;5010392;28;20972;-86
2022/09/27 10:34:39;;;;;;;2.17;0.45;;;12.60;99.90;;;;;;5013622;28;20026;-86
2022/09/27 10:37:20;;;;;;;2.13;0.47;;;12.30;99.90;;;;;;5010282;28;20510;-87
2022/09/27 10:39:49;;;;;;;2.45;0.10;;;11.90;99.90;;;;;;5025512;28;20021;-86
2022/09/27 10:42:36;;;;;;;1.00;0.10;;;11.90;99.90;;;;;;5011232;28;20037;-86
2022/09/27 10:45:21;;;;;;;0.50;0.15;;;11.90;99.90;;;;;;5012297;28;20033;-86
2022/09/27 10:47:47;;;;;;;0.98;0.10;;;12.10;99.90;;;;;;5010696;28;20021;-87
2022/09/27 10:50:25;;;;;;;1.00;0.22;;;12.00;99.90;;;;;;5010719;28;20035;-86
2022/09/27 10:53:04;;;;;;;0.57;0.20;;;12.10;99.90;;;;;;5011976;28;20080;-86
2022/09/27 10:55:34;;;;;;;0.15;0.10;;;12.10;99.90;;;;;;5011417;28;20115;-86
2022/09/27 10:58:01;;;;;;;1.25;0.10;;;12.00;99.90;;;;;;5011284;28;20026;-86
2022/09/27 11:00:35;;;;;;;0.47;0.10;;;11.90;99.90;;;;;;5012078;28;20041;-86
2022/09/27 11:03:04;;;;;;;2.55;0.20;;;11.90;99.90;;;;;;5012475;28;20026;-86
2022/09/27 11:05:38;;;;;;;0.40;0.10;;;12.00;99.90;;;;;;5012309;28;20029;-86
2022/09/27 11:08:28;;;;;;;0.20;0.10;;;12.10;99.90;;;;;;5011917;28;20478;-85
2022/09/27 11:11:29;;;;;;;1.30;0.20;;;12.00;99.90;;;;;;5011131;28;20083;-85
2022/09/27 11:14:17;;;;;;;0.35;0.17;;;11.90;99.90;;;;;;5006846;28;20026;-85
2022/09/27 11:17:02;;;;;;;0.20;0.10;;;11.90;99.90;;;;;;5014139;28;20081;-86
2022/09/27 11:19:33;;;;;;;0.55;0.15;;;12.00;99.90;;;;;;5012523;28;20695;-85
2022/09/27 11:22:26;;;;;;;1.95;0.10;;;12.10;99.90;;;;;;5010382;28;20600;-86
2022/09/27 11:25:18;;;;;;;0.85;0.38;;;12.20;99.90;;;;;;5010183;28;20037;-85
2022/09/27 11:28:14;;;;;;;6.50;0.30;;;12.20;99.90;;;;;;5013894;28;20037;-86
2022/09/27 11:30:56;;;;;;;0.25;0.00;;;12.20;99.90;;;;;;5015424;28;20037;-86
2022/09/27 11:33:50;;;;;;;0.00;0.00;;;12.30;99.90;;;;;;5009328;28;20031;-86
2022/09/27 11:36:47;;;;;;;1.00;0.10;;;12.40;99.90;;;;;;5018543;28;20431;-85
2022/09/27 11:39:36;;;;;;;0.38;0.10;;;12.50;99.90;;;;;;5010450;28;20030;-85
2022/09/27 11:42:23;;;;;;;0.17;0.10;;;12.40;99.90;;;;;;5009594;28;20100;-85
2022/09/27 11:45:20;;;;;;;0.15;0.10;;;12.30;99.90;;;;;;5014033;28;20032;-85
2022/09/27 11:48:04;;;;;;;0.17;0.10;;;12.30;99.90;;;;;;5012343;28;20482;-85
2022/09/27 11:50:52;;;;;;;0.60;0.10;;;12.20;99.90;;;;;;5014004;28;20041;-86
2022/09/27 11:53:18;;;;;;;0.40;0.10;;;12.10;99.90;;;;;;5011803;28;20040;-85
2022/09/27 11:56:25;;;;;;;0.60;0.10;;;12.10;99.90;;;;;;5012623;28;20104;-85
2022/09/27 11:59:11;;;;;;;0.40;0.40;;;12.40;99.90;;;;;;5020957;28;20029;-85
2022/09/27 12:01:53;;;;;;;0.40;0.10;;;12.50;99.90;;;;;;5009166;28;20041;-85
2022/09/27 12:04:38;;;;;;;0.77;0.28;;;12.70;99.90;;;;;;5008047;28;20022;-85
2022/09/27 12:07:26;;;;;;;0.35;0.00;;;12.90;99.90;;;;;;5007573;28;20104;-85
2022/09/27 12:09:56;;;;;;;0.20;0.00;;;13.10;99.90;;;;;;5010033;28;20173;-86
2022/09/27 12:12:29;;;;;;;0.25;0.10;;;12.90;99.90;;;;;;5010519;28;20029;-86
2022/09/27 12:15:05;;;;;;;0.30;0.10;;;12.80;99.90;;;;;;5023061;28;20026;-85
2022/09/27 12:17:37;;;;;;;0.60;0.13;;;12.70;99.90;;;;;;5023055;28;20417;-85
2022/09/27 12:20:15;;;;;;;1.95;0.20;;;12.60;99.90;;;;;;5011486;28;20029;-85
2022/09/27 12:23:06;;;;;;;0.00;0.00;;;12.70;99.90;;;;;;5011474;28;20034;-85
2022/09/27 12:25:39;;;;;;;0.00;0.00;;;12.60;99.90;;;;;;5009129;28;20037;-85
2022/09/27 12:28:29;;;;;;;0.35;0.10;;;12.30;99.90;;;;;;5011281;28;20026;-85
2022/09/27 12:31:09;;;;;;;0.45;0.10;;;12.30;99.90;;;;;;5007309;28;20065;-86
2022/09/27 12:33:49;;;;;;;0.05;0.00;;;12.00;99.90;;;;;;5012962;28;20034;-85
2022/09/27 12:36:19;;;;;;;0.35;0.10;;;11.90;99.90;;;;;;5005665;28;20052;-85
2022/09/27 12:39:10;;;;;;;0.35;0.03;;;11.80;99.90;;;;;;5007501;28;20068;-85
2022/09/27 12:41:40;;;;;;;0.20;0.03;;;11.50;99.90;;;;;;5056260;23;20221;-88
2022/09/27 12:44:09;;;;;;;0.20;0.00;;;11.60;99.90;;;;;;5061522;28;20021;-88
2022/09/27 12:46:41;;;;;;;0.38;0.00;;;11.70;99.90;;;;;;5060721;28;20028;-88
2022/09/27 12:49:25;;;;;;;0.30;0.00;;;11.60;99.90;;;;;;5057026;28;20051;-89
2022/09/27 12:51:59;;;;;;;0.47;0.30;;;11.50;99.90;;;;;;5044729;28;20029;-88
2022/09/27 12:54:53;;;;;;;0.55;0.05;;;11.60;99.90;;;;;;5039235;28;20025;-88
2022/09/27 12:57:47;;;;;;;0.25;0.10;;;11.30;99.90;;;;;;5033814;28;20029;-85
2022/09/27 13:00:24;;;;;;;0.40;0.10;;;11.80;99.90;;;;;;5030947;28;20188;-85
2022/09/27 13:02:59;;;;;;;1.00;0.22;;;11.80;99.90;;;;;;5030670;28;20021;-86
2022/09/27 13:05:27;;;;;;;0.17;0.08;;;11.90;99.90;;;;;;5033537;28;20018;-87
2022/09/27 13:08:30;;;;;;;0.28;0.10;;;12.10;99.90;;;;;;5026330;28;20026;-86
2022/09/27 13:11:23;;;;;;;0.15;0.00;;;12.10;99.90;;;;;;5031046;28;20033;-88
2022/09/27 13:13:54;;;;;;;0.43;0.10;;;12.10;99.90;;;;;;5031610;28;20393;-89
2022/09/27 13:16:24;;;;;;;0.00;0.00;;;12.20;99.90;;;;;;5024347;28;20032;-88
2022/09/27 13:19:00;;;;;;;0.00;0.00;;;12.50;99.90;;;;;;5033844;28;20109;-88
2022/09/27 13:21:44;;;;;;;0.32;0.10;;;12.40;99.90;;;;;;5027088;28;20482;-88
2022/09/27 13:24:39;;;;;;;0.80;0.15;;;12.20;99.90;;;;;;5022151;28;20064;-89
2022/09/27 13:27:27;;;;;;;0.15;0.03;;;12.20;99.90;;;;;;5035597;28;20021;-88
2022/09/27 13:30:07;;;;;;;0.10;0.05;;;12.10;99.90;;;;;;5038102;28;20022;-89
2022/09/27 13:32:37;;;;;;;0.00;0.00;;;12.10;99.90;;;;;;5040648;28;20033;-87
2022/09/27 13:35:23;;;;;;;0.10;0.00;;;12.10;99.90;;;;;;5033931;28;20041;-87
2022/09/27 13:37:58;;;;;;;0.43;0.17;;;12.20;99.90;;;;;;5037200;28;20021;-87
2022/09/27 13:40:35;;;;;;;0.28;0.00;;;12.70;99.90;;;;;;5042204;28;20049;-88